Time;durP1;ratioP1;P1;durP2;ratioP2;P2;SDS_P1;SDS_P2;PMS_P1;PMS_P2;Temp;Humidity;BMP_temperature;BMP_pressure;BME280_temperature;BME280_humidity;BME280_pressure;Samples;Min_cycle;Max_cycle;Signal;HPM_P1;HPM_P2
2022/09/25 00:01:22;;;;;;;24.08;11.80;;;13.60;99.90;;;;;;4949481;28;20031;-79
2022/09/25 00:03:47;;;;;;;21.45;11.38;;;13.50;99.90;;;;;;4953701;28;20573;-79
2022/09/25 00:06:21;;;;;;;20.38;10.75;;;13.50;99.90;;;;;;4958540;28;20075;-80
2022/09/25 00:08:46;;;;;;;18.35;10.52;;;13.60;99.90;;;;;;4938470;28;20030;-79
2022/09/25 00:11:14;;;;;;;15.77;9.40;;;13.60;99.90;;;;;;4927625;28;20098;-80
2022/09/25 00:13:40;;;;;;;15.98;10.80;;;13.50;99.90;;;;;;4934180;28;20490;-80
2022/09/25 00:16:06;;;;;;;18.17;9.25;;;13.50;99.90;;;;;;4960801;28;20035;-79
2022/09/25 00:21:16;;;;;;;15.18;8.52;;;13.50;99.90;;;;;;4957208;28;20115;-80
2022/09/25 00:23:43;;;;;;;14.18;7.57;;;13.50;99.90;;;;;;4961370;28;20114;-80
2022/09/25 00:26:09;;;;;;;10.70;6.22;;;13.50;99.90;;;;;;4945226;28;20043;-79
2022/09/25 00:28:35;;;;;;;17.15;6.53;;;13.40;99.90;;;;;;4948773;28;20035;-79
2022/09/25 00:31:03;;;;;;;13.30;6.60;;;13.50;99.90;;;;;;4960544;28;20035;-79
2022/09/25 00:33:28;;;;;;;16.00;6.50;;;13.50;99.90;;;;;;4957319;28;20617;-84
2022/09/25 00:35:54;;;;;;;9.45;5.45;;;13.40;99.90;;;;;;4943264;28;20125;-83
2022/09/25 00:38:19;;;;;;;14.68;5.60;;;13.40;99.90;;;;;;4958690;28;20059;-83
2022/09/25 00:40:46;;;;;;;14.52;5.28;;;13.40;99.90;;;;;;4940691;28;20177;-84
2022/09/25 00:43:14;;;;;;;13.20;4.72;;;13.40;99.90;;;;;;4958239;28;20094;-83
2022/09/25 00:45:41;;;;;;;11.10;4.93;;;13.40;99.90;;;;;;4963862;28;20134;-83
2022/09/25 00:48:09;;;;;;;11.38;5.10;;;13.40;99.90;;;;;;4948669;28;20114;-83
2022/09/25 00:51:02;;;;;;;8.32;3.95;;;13.30;99.90;;;;;;4940039;28;20423;-83
2022/09/25 00:53:30;;;;;;;7.47;3.50;;;13.30;99.90;;;;;;4942311;28;20039;-83
2022/09/25 00:55:55;;;;;;;11.63;4.05;;;13.30;99.90;;;;;;4943827;28;20094;-83
2022/09/25 00:58:22;;;;;;;8.13;4.45;;;13.40;99.90;;;;;;4937301;28;20039;-83
2022/09/25 01:00:48;;;;;;;11.52;3.13;;;13.30;99.90;;;;;;4961851;28;20509;-84
2022/09/25 01:03:14;;;;;;;11.98;3.53;;;13.30;99.90;;;;;;4938428;28;20042;-83
2022/09/25 01:05:41;;;;;;;9.05;4.50;;;13.30;99.90;;;;;;4928678;28;20051;-83
2022/09/25 01:08:09;;;;;;;10.38;3.53;;;13.30;99.90;;;;;;4930786;28;20027;-83
2022/09/25 01:10:34;;;;;;;11.70;3.20;;;13.30;99.90;;;;;;4923404;28;20032;-83
2022/09/25 01:13:00;;;;;;;6.22;2.85;;;13.20;99.90;;;;;;4919475;28;20587;-83
2022/09/25 01:15:47;;;;;;;9.07;2.90;;;13.20;99.90;;;;;;4933038;28;20117;-84
2022/09/25 01:18:31;;;;;;;10.18;3.40;;;13.20;99.90;;;;;;4933943;28;20381;-83
2022/09/25 01:21:38;;;;;;;9.90;3.38;;;13.20;99.90;;;;;;4939078;28;20031;-83
2022/09/25 01:24:27;;;;;;;18.05;3.35;;;13.20;99.90;;;;;;4945459;28;20488;-84
2022/09/25 01:26:59;;;;;;;8.20;3.22;;;13.10;99.90;;;;;;4941447;28;20106;-83
2022/09/25 01:29:48;;;;;;;11.52;3.55;;;13.10;99.90;;;;;;4937801;28;20136;-83
2022/09/25 01:32:20;;;;;;;8.63;2.92;;;13.10;99.90;;;;;;4969926;28;20517;-83
2022/09/25 01:35:01;;;;;;;6.82;3.38;;;13.00;99.90;;;;;;4925986;28;20039;-83
2022/09/25 01:37:45;;;;;;;18.52;4.13;;;13.00;99.90;;;;;;4941083;28;20437;-82
2022/09/25 01:40:16;;;;;;;17.02;3.75;;;13.00;99.90;;;;;;4940359;28;20062;-82
2022/09/25 01:42:51;;;;;;;10.20;3.03;;;13.50;99.90;;;;;;4935799;28;20028;-82
2022/09/25 01:45:20;;;;;;;13.23;6.03;;;12.90;99.90;;;;;;4938732;28;20062;-82
2022/09/25 01:47:47;;;;;;;17.30;3.72;;;12.90;99.90;;;;;;4941480;28;20036;-82
2022/09/25 01:50:23;;;;;;;10.35;3.38;;;12.90;99.90;;;;;;4942138;28;20440;-82
2022/09/25 01:52:51;;;;;;;7.68;2.90;;;12.80;99.90;;;;;;4934321;28;20538;-82
2022/09/25 01:55:34;;;;;;;7.70;2.85;;;12.80;99.90;;;;;;4948477;28;20055;-82
2022/09/25 01:58:07;;;;;;;12.57;2.90;;;12.80;99.90;;;;;;4933813;28;20470;-82
2022/09/25 02:00:32;;;;;;;12.38;3.20;;;12.80;99.90;;;;;;4943409;28;20115;-82
2022/09/25 02:03:10;;;;;;;8.00;2.97;;;12.80;99.90;;;;;;4930616;28;20102;-82
2022/09/25 02:05:45;;;;;;;17.02;3.60;;;12.70;99.90;;;;;;4947177;28;20035;-82
2022/09/25 02:08:27;;;;;;;13.20;3.15;;;12.70;99.90;;;;;;4947595;28;20513;-82
2022/09/25 02:10:55;;;;;;;11.00;3.20;;;12.70;99.90;;;;;;4963352;28;20450;-82
2022/09/25 02:13:21;;;;;;;11.88;3.72;;;12.70;99.90;;;;;;4945363;28;20035;-82
2022/09/25 02:15:55;;;;;;;13.43;3.40;;;12.60;99.90;;;;;;4942337;28;20047;-82
2022/09/25 02:21:14;;;;;;;10.25;3.50;;;12.60;99.90;;;;;;4958453;28;20045;-82
2022/09/25 02:23:52;;;;;;;11.10;3.05;;;12.60;99.90;;;;;;4966219;28;20442;-83
2022/09/25 02:26:24;;;;;;;16.13;3.85;;;12.60;99.90;;;;;;4959328;28;20115;-82
2022/09/25 02:28:52;;;;;;;15.60;3.47;;;12.60;99.90;;;;;;4932084;28;20426;-82
2022/09/25 02:31:20;;;;;;;8.10;2.17;;;12.60;99.90;;;;;;4928055;28;20043;-82
2022/09/25 02:33:46;;;;;;;8.05;2.83;;;12.50;99.90;;;;;;4943544;28;20027;-82
2022/09/25 02:36:19;;;;;;;9.75;3.47;;;12.50;99.90;;;;;;4944732;28;20032;-82
2022/09/25 02:38:45;;;;;;;14.20;2.40;;;12.60;99.90;;;;;;4964083;28;20035;-82
2022/09/25 02:41:29;;;;;;;8.38;2.22;;;12.30;99.90;;;;;;4948346;28;20066;-82
2022/09/25 02:44:12;;;;;;;9.98;2.65;;;12.40;99.90;;;;;;4962794;28;20042;-82
2022/09/25 02:46:54;;;;;;;14.13;2.50;;;12.40;99.90;;;;;;4949945;28;20519;-82
2022/09/25 02:49:33;;;;;;;11.57;2.70;;;12.40;99.90;;;;;;4959041;28;20340;-82
2022/09/25 02:52:18;;;;;;;15.05;2.55;;;12.40;99.90;;;;;;4937253;28;20024;-82
2022/09/25 02:54:52;;;;;;;13.70;2.88;;;12.30;99.90;;;;;;4957486;28;20410;-83
2022/09/25 02:57:41;;;;;;;11.75;2.20;;;12.30;99.90;;;;;;4975963;28;20110;-82
2022/09/25 03:00:07;;;;;;;10.65;1.83;;;12.30;99.90;;;;;;4944790;28;20507;-81
2022/09/25 03:02:33;;;;;;;7.85;2.67;;;12.30;99.90;;;;;;4919537;28;20097;-82
2022/09/25 03:04:58;;;;;;;16.20;2.83;;;12.40;99.90;;;;;;4955354;28;20399;-82
2022/09/25 03:07:24;;;;;;;12.18;3.13;;;12.30;99.90;;;;;;4934276;28;20046;-81
2022/09/25 03:09:50;;;;;;;12.68;2.45;;;12.20;99.90;;;;;;4929674;28;20076;-82
2022/09/25 03:12:15;;;;;;;11.60;1.85;;;12.20;99.90;;;;;;4945094;28;20035;-81
2022/09/25 03:14:42;;;;;;;9.82;2.65;;;12.00;99.90;;;;;;4931123;28;20475;-81
2022/09/25 03:17:10;;;;;;;7.63;2.35;;;12.20;99.90;;;;;;4928109;28;20038;-81
2022/09/25 03:19:35;;;;;;;8.75;2.15;;;12.10;99.90;;;;;;4942600;28;20391;-81
2022/09/25 03:22:01;;;;;;;11.02;2.33;;;12.10;99.90;;;;;;4960173;28;20045;-81
2022/09/25 03:24:27;;;;;;;8.93;2.35;;;12.10;99.90;;;;;;4933470;28;20037;-81
2022/09/25 03:26:52;;;;;;;13.77;2.63;;;12.10;99.90;;;;;;4964584;28;20483;-81
2022/09/25 03:29:18;;;;;;;9.73;2.17;;;12.10;99.90;;;;;;4928219;28;20494;-81
2022/09/25 03:31:44;;;;;;;14.45;2.25;;;12.10;99.90;;;;;;4941312;28;20126;-81
2022/09/25 03:34:10;;;;;;;11.95;2.60;;;12.00;99.90;;;;;;4943476;28;20640;-81
2022/09/25 03:36:36;;;;;;;8.65;2.40;;;12.00;99.90;;;;;;4957690;28;20024;-80
2022/09/25 03:39:02;;;;;;;9.00;2.92;;;12.00;99.90;;;;;;4945158;28;20035;-80
2022/09/25 03:41:29;;;;;;;10.63;2.55;;;12.00;99.90;;;;;;4925125;28;20031;-81
2022/09/25 03:43:55;;;;;;;9.48;2.72;;;12.00;99.90;;;;;;4946692;28;20519;-80
2022/09/25 03:46:28;;;;;;;9.60;2.92;;;11.90;99.90;;;;;;4936711;28;20031;-80
2022/09/25 03:48:54;;;;;;;12.20;3.22;;;11.90;99.90;;;;;;4936257;28;20038;-80
2022/09/25 03:51:20;;;;;;;14.07;2.90;;;12.40;99.90;;;;;;4930044;28;20395;-81
2022/09/25 03:53:46;;;;;;;9.40;2.58;;;11.90;99.90;;;;;;4927640;28;20037;-80
2022/09/25 03:56:13;;;;;;;11.45;2.83;;;11.90;99.90;;;;;;4928409;28;20745;-80
2022/09/25 03:58:39;;;;;;;9.63;3.95;;;11.80;99.90;;;;;;4944729;28;20035;-80
2022/09/25 04:01:05;;;;;;;17.50;4.35;;;11.70;99.90;;;;;;4961464;28;20035;-81
2022/09/25 04:03:31;;;;;;;10.38;3.28;;;11.70;99.90;;;;;;4938999;28;20019;-80
2022/09/25 04:05:58;;;;;;;6.32;2.88;;;11.70;99.90;;;;;;4929996;28;20038;-80
2022/09/25 04:08:25;;;;;;;13.30;3.20;;;11.70;99.90;;;;;;4945391;28;20157;-80
2022/09/25 04:10:58;;;;;;;12.43;3.00;;;11.60;99.90;;;;;;4961335;28;20653;-80
2022/09/25 04:13:28;;;;;;;7.22;2.97;;;11.60;99.90;;;;;;4963414;28;20034;-81
2022/09/25 04:15:55;;;;;;;7.90;2.58;;;11.60;99.90;;;;;;4931152;28;20031;-81
2022/09/25 04:18:20;;;;;;;18.45;3.70;;;11.50;99.90;;;;;;4955082;28;20810;-81
2022/09/25 04:20:46;;;;;;;11.50;3.55;;;11.50;99.90;;;;;;4936446;28;20032;-81
2022/09/25 04:23:12;;;;;;;11.90;3.60;;;11.50;99.90;;;;;;4943121;28;20055;-81
2022/09/25 04:25:37;;;;;;;15.00;3.78;;;11.50;99.90;;;;;;4943578;28;20035;-81
2022/09/25 04:28:04;;;;;;;15.23;3.60;;;11.50;99.90;;;;;;4940252;28;20039;-80
2022/09/25 04:30:29;;;;;;;15.60;4.18;;;11.50;99.90;;;;;;4933240;28;20027;-80
2022/09/25 04:35:42;;;;;;;9.05;3.58;;;11.40;99.90;;;;;;4947931;28;20573;-81
2022/09/25 04:38:08;;;;;;;7.70;3.72;;;11.40;99.90;;;;;;4930463;28;20126;-81
2022/09/25 04:40:35;;;;;;;8.02;4.13;;;11.30;99.90;;;;;;4930055;28;20110;-81
2022/09/25 04:43:02;;;;;;;18.40;4.15;;;11.20;99.90;;;;;;4935137;28;20037;-81
2022/09/25 04:45:28;;;;;;;12.80;3.20;;;11.20;99.90;;;;;;4937820;28;20522;-81
2022/09/25 04:47:54;;;;;;;11.13;3.20;;;11.10;99.90;;;;;;4927034;28;20031;-80
2022/09/25 04:50:23;;;;;;;9.10;3.20;;;11.10;99.90;;;;;;4940643;28;20038;-81
2022/09/25 04:52:50;;;;;;;10.55;3.15;;;11.10;99.90;;;;;;4930651;28;20116;-80
2022/09/25 04:55:16;;;;;;;14.40;3.83;;;11.00;99.90;;;;;;4944226;28;20047;-80
2022/09/25 04:57:41;;;;;;;15.13;3.47;;;11.00;99.90;;;;;;4931574;28;20031;-81
2022/09/25 05:00:07;;;;;;;11.40;3.63;;;10.90;99.90;;;;;;4924928;28;20035;-80
2022/09/25 05:02:33;;;;;;;13.38;3.35;;;10.90;99.90;;;;;;4939729;28;20556;-81
2022/09/25 05:04:59;;;;;;;6.15;2.47;;;10.90;99.90;;;;;;4930673;28;20045;-81
2022/09/25 05:07:24;;;;;;;7.75;3.10;;;10.90;99.90;;;;;;4947414;28;20062;-81
2022/09/25 05:09:50;;;;;;;12.05;3.20;;;10.90;99.90;;;;;;4927692;28;20131;-81
2022/09/25 05:12:15;;;;;;;12.45;4.03;;;10.90;99.90;;;;;;4941612;28;20041;-80
2022/09/25 05:14:41;;;;;;;13.18;3.17;;;10.90;99.90;;;;;;4955000;28;20034;-80
2022/09/25 05:17:09;;;;;;;10.68;2.80;;;10.80;99.90;;;;;;4947144;28;20459;-80
2022/09/25 05:19:35;;;;;;;15.57;3.88;;;10.70;99.90;;;;;;4930566;28;20715;-80
2022/09/25 05:22:01;;;;;;;16.05;4.07;;;10.70;99.90;;;;;;4964427;28;20034;-80
2022/09/25 05:24:26;;;;;;;10.35;3.15;;;10.70;99.90;;;;;;4962797;28;20043;-80
2022/09/25 05:26:52;;;;;;;11.25;3.05;;;10.70;99.90;;;;;;4965767;28;20035;-80
2022/09/25 05:29:17;;;;;;;11.05;3.17;;;10.60;99.90;;;;;;4962307;28;20054;-80
2022/09/25 05:31:45;;;;;;;9.43;2.90;;;10.60;99.90;;;;;;4948146;28;20050;-80
2022/09/25 05:34:12;;;;;;;14.63;3.50;;;10.60;99.90;;;;;;4962991;28;20062;-80
2022/09/25 05:36:38;;;;;;;18.55;3.58;;;10.60;99.90;;;;;;4934674;28;20077;-80
2022/09/25 05:39:03;;;;;;;14.70;3.90;;;10.60;99.90;;;;;;4929016;28;20542;-80
2022/09/25 05:41:30;;;;;;;12.40;3.55;;;10.60;99.90;;;;;;4963983;28;20375;-80
2022/09/25 05:43:56;;;;;;;28.90;4.68;;;10.60;99.90;;;;;;4965828;28;20070;-80
2022/09/25 05:46:21;;;;;;;10.15;3.67;;;10.50;99.90;;;;;;4962413;28;20039;-80
2022/09/25 05:48:49;;;;;;;17.05;4.25;;;10.50;99.90;;;;;;4965024;28;20038;-80
2022/09/25 05:51:14;;;;;;;10.98;2.90;;;10.50;99.90;;;;;;4928360;28;20043;-80
2022/09/25 05:53:41;;;;;;;13.40;4.38;;;10.40;99.90;;;;;;4947018;28;20685;-80
2022/09/25 05:56:06;;;;;;;8.88;3.55;;;10.40;99.90;;;;;;4945516;28;20554;-80
2022/09/25 05:58:33;;;;;;;14.95;3.70;;;10.40;99.90;;;;;;4935988;28;20114;-80
2022/09/25 06:01:05;;;;;;;11.18;3.40;;;10.50;99.90;;;;;;4945772;28;20059;-79
2022/09/25 06:03:30;;;;;;;10.55;3.80;;;10.40;99.90;;;;;;4942078;28;20550;-80
2022/09/25 06:05:57;;;;;;;13.98;3.58;;;10.40;99.90;;;;;;4949287;28;20121;-80
2022/09/25 06:08:22;;;;;;;15.70;3.75;;;10.40;99.90;;;;;;4948887;28;20039;-80
2022/09/25 06:10:53;;;;;;;21.63;3.53;;;10.30;99.90;;;;;;4966502;28;20840;-79
2022/09/25 06:13:19;;;;;;;18.52;3.90;;;10.30;99.90;;;;;;4960095;28;20619;-80
2022/09/25 06:15:44;;;;;;;14.32;3.97;;;10.30;99.90;;;;;;4950509;28;20066;-80
2022/09/25 06:18:10;;;;;;;10.85;3.78;;;10.30;99.90;;;;;;4963799;28;20035;-79
2022/09/25 06:20:35;;;;;;;17.40;3.88;;;10.30;99.90;;;;;;4931005;28;20074;-79
2022/09/25 06:23:01;;;;;;;5.70;2.30;;;10.30;99.90;;;;;;4961046;28;20047;-80
2022/09/25 06:25:28;;;;;;;10.50;3.28;;;10.30;99.90;;;;;;4932625;28;20063;-80
2022/09/25 06:27:55;;;;;;;13.35;4.20;;;10.40;99.90;;;;;;4950683;28;20554;-78
2022/09/25 06:30:22;;;;;;;16.42;4.15;;;10.40;99.90;;;;;;4961383;28;20087;-79
2022/09/25 06:32:55;;;;;;;10.95;3.40;;;10.40;99.90;;;;;;4943675;28;20042;-79
2022/09/25 06:35:21;;;;;;;12.45;3.80;;;10.40;99.90;;;;;;4944814;28;20039;-79
2022/09/25 06:37:47;;;;;;;15.63;4.55;;;10.30;99.90;;;;;;4936403;28;20041;-79
2022/09/25 06:40:12;;;;;;;11.70;4.28;;;10.40;99.90;;;;;;4956044;28;20081;-79
2022/09/25 06:42:38;;;;;;;16.98;4.38;;;10.50;99.90;;;;;;4961754;28;20070;-79
2022/09/25 06:45:07;;;;;;;19.65;4.57;;;10.50;99.90;;;;;;4945916;28;20049;-79
2022/09/25 06:47:33;;;;;;;17.33;4.28;;;10.40;99.90;;;;;;4961392;28;20569;-79
2022/09/25 06:49:59;;;;;;;13.18;3.38;;;10.40;99.90;;;;;;4947090;28;20130;-79
2022/09/25 06:52:25;;;;;;;12.20;4.13;;;10.50;99.90;;;;;;4948108;28;20054;-79
2022/09/25 06:54:51;;;;;;;15.80;6.47;;;10.60;99.90;;;;;;4962632;28;20496;-79
2022/09/25 06:57:16;;;;;;;10.27;2.90;;;10.50;99.90;;;;;;4962455;28;20042;-78
2022/09/25 06:59:42;;;;;;;13.13;4.30;;;10.60;99.90;;;;;;4949791;28;20031;-78
2022/09/25 07:04:52;;;;;;;13.18;4.20;;;10.60;99.90;;;;;;4962592;28;20407;-78
2022/09/25 07:07:19;;;;;;;11.02;4.40;;;10.40;99.90;;;;;;4949318;28;20043;-78
2022/09/25 07:09:48;;;;;;;18.63;4.50;;;10.70;99.90;;;;;;4947570;28;20110;-77
2022/09/25 07:12:16;;;;;;;13.80;4.78;;;10.60;99.90;;;;;;4950803;28;20534;-77
2022/09/25 07:14:43;;;;;;;13.38;4.38;;;10.40;99.90;;;;;;4944149;28;20033;-77
2022/09/25 07:17:08;;;;;;;14.32;5.18;;;10.40;99.90;;;;;;4947015;28;20039;-77
2022/09/25 07:19:34;;;;;;;9.15;3.47;;;10.60;99.90;;;;;;4926613;28;20023;-77
2022/09/25 07:22:00;;;;;;;12.20;4.00;;;10.70;99.90;;;;;;4964211;28;20042;-77
2022/09/25 07:24:25;;;;;;;15.65;4.10;;;10.60;99.90;;;;;;4945916;28;20031;-77
2022/09/25 07:26:51;;;;;;;19.10;3.15;;;10.70;99.90;;;;;;4961562;28;20031;-78
2022/09/25 07:29:17;;;;;;;12.07;4.35;;;10.60;99.90;;;;;;4948195;28;20050;-78
2022/09/25 07:31:43;;;;;;;7.60;3.28;;;10.50;99.90;;;;;;4959115;28;20026;-77
2022/09/25 07:34:08;;;;;;;7.55;3.28;;;10.70;99.90;;;;;;4963393;28;20036;-77
2022/09/25 07:36:37;;;;;;;15.00;3.05;;;10.70;99.90;;;;;;4963370;28;20042;-77
2022/09/25 07:39:02;;;;;;;15.75;2.80;;;10.80;99.90;;;;;;4941396;28;20053;-79
2022/09/25 07:41:28;;;;;;;12.00;2.72;;;10.80;99.90;;;;;;4949805;28;20097;-77
2022/09/25 07:43:55;;;;;;;12.40;3.05;;;10.90;99.90;;;;;;4927352;28;20117;-77
2022/09/25 07:46:21;;;;;;;8.55;3.03;;;11.00;99.90;;;;;;4948465;28;20035;-78
2022/09/25 07:48:49;;;;;;;11.63;3.05;;;11.00;99.90;;;;;;4964895;28;20498;-78
2022/09/25 07:51:15;;;;;;;10.18;3.17;;;10.90;99.90;;;;;;4960333;28;20031;-78
2022/09/25 07:53:42;;;;;;;12.23;3.08;;;11.10;99.90;;;;;;4959477;28;20034;-78
2022/09/25 07:56:08;;;;;;;12.27;2.90;;;11.10;99.90;;;;;;4945032;28;20035;-77
2022/09/25 07:58:34;;;;;;;9.95;2.20;;;11.20;99.90;;;;;;4926954;28;20534;-78
2022/09/25 08:01:00;;;;;;;17.25;2.70;;;11.40;99.90;;;;;;4946012;28;20055;-78
2022/09/25 08:03:26;;;;;;;13.90;1.92;;;11.30;99.90;;;;;;4957465;28;20054;-78
2022/09/25 08:05:58;;;;;;;13.88;2.15;;;11.40;99.90;;;;;;4960657;28;20031;-78
2022/09/25 08:08:25;;;;;;;9.20;2.15;;;11.80;99.90;;;;;;4960467;28;20054;-77
2022/09/25 08:10:50;;;;;;;6.47;1.77;;;12.00;99.90;;;;;;4946420;28;20051;-78
2022/09/25 08:13:19;;;;;;;7.30;1.50;;;12.10;99.90;;;;;;4942953;28;20596;-78
2022/09/25 08:15:45;;;;;;;10.73;1.80;;;12.10;99.90;;;;;;4943514;28;20038;-77
2022/09/25 08:18:10;;;;;;;14.82;2.72;;;12.00;99.90;;;;;;4928931;28;20038;-78
2022/09/25 08:20:38;;;;;;;11.73;2.00;;;11.70;99.90;;;;;;4928306;28;20034;-78
2022/09/25 08:23:05;;;;;;;8.82;1.85;;;11.80;99.90;;;;;;4929489;28;20626;-78
2022/09/25 08:25:30;;;;;;;9.93;1.40;;;11.80;99.90;;;;;;4944863;28;20039;-78
2022/09/25 08:27:56;;;;;;;9.13;1.70;;;12.00;99.90;;;;;;4940569;28;20522;-78
2022/09/25 08:30:23;;;;;;;13.95;1.92;;;12.00;99.90;;;;;;4957700;28;20565;-78
2022/09/25 08:32:51;;;;;;;8.75;1.55;;;12.20;99.90;;;;;;4963996;28;20097;-78
2022/09/25 08:35:16;;;;;;;10.15;1.63;;;12.40;99.90;;;;;;4931942;28;20234;-78
2022/09/25 08:37:43;;;;;;;12.77;1.95;;;12.60;99.90;;;;;;4976446;28;20554;-77
2022/09/25 08:40:16;;;;;;;11.60;1.48;;;12.90;99.90;;;;;;4959183;28;20047;-77
2022/09/25 08:42:42;;;;;;;8.13;1.23;;;13.00;99.90;;;;;;4958824;28;20026;-77
2022/09/25 08:50:43;;;;;;;5.25;1.42;;;13.40;99.90;;;;;;4958012;28;20077;-77
2022/09/25 08:53:24;;;;;;;5.90;1.08;;;13.40;99.90;;;;;;4955889;28;20493;-80
2022/09/25 08:58:41;;;;;;;6.97;1.15;;;13.70;99.90;;;;;;4947116;28;20150;-77
2022/09/25 09:01:12;;;;;;;9.60;1.20;;;13.90;99.90;;;;;;4963103;28;20093;-77
2022/09/25 09:04:05;;;;;;;6.93;1.10;;;13.90;99.90;;;;;;4952522;28;20039;-78
2022/09/25 09:06:32;;;;;;;6.03;1.13;;;14.00;99.90;;;;;;4948090;28;20376;-77
2022/09/25 09:09:11;;;;;;;7.80;1.33;;;14.10;99.90;;;;;;4928159;28;20031;-78
2022/09/25 09:11:46;;;;;;;4.72;0.93;;;14.10;99.90;;;;;;4931705;28;20031;-77
2022/09/25 09:14:17;;;;;;;6.37;0.70;;;14.20;99.90;;;;;;4943729;28;20042;-78
2022/09/25 09:17:05;;;;;;;11.07;2.92;;;14.20;99.90;;;;;;4948276;28;20098;-78
2022/09/25 09:19:32;;;;;;;8.20;1.23;;;14.30;99.90;;;;;;4958441;28;20030;-77
2022/09/25 09:22:10;;;;;;;7.82;1.05;;;14.30;99.90;;;;;;4944941;28;20039;-77
2022/09/25 09:24:56;;;;;;;5.43;0.90;;;14.40;99.90;;;;;;4929810;28;20051;-78
2022/09/25 09:27:28;;;;;;;3.22;0.80;;;14.40;99.90;;;;;;4960664;28;20526;-78
2022/09/25 09:30:19;;;;;;;3.38;0.65;;;14.50;99.90;;;;;;4962401;28;20094;-78
2022/09/25 09:32:50;;;;;;;3.80;1.08;;;14.60;99.90;;;;;;4948647;28;20071;-78
2022/09/25 09:35:53;;;;;;;3.85;1.10;;;14.60;99.90;;;;;;4956651;28;20491;-78
2022/09/25 09:38:31;;;;;;;7.82;1.02;;;14.70;99.90;;;;;;4963754;28;20534;-79
2022/09/25 09:41:20;;;;;;;6.68;1.30;;;14.70;99.90;;;;;;4963059;28;20491;-79
2022/09/25 09:43:51;;;;;;;7.20;1.00;;;14.70;99.90;;;;;;4956560;28;20030;-78
2022/09/25 09:46:41;;;;;;;5.38;1.23;;;14.80;99.90;;;;;;4958735;28;20038;-78
2022/09/25 09:49:24;;;;;;;5.32;0.80;;;14.80;99.90;;;;;;4961647;28;20027;-78
2022/09/25 09:51:51;;;;;;;6.65;1.55;;;14.90;99.90;;;;;;4960759;28;20034;-78
2022/09/25 09:54:38;;;;;;;6.93;0.90;;;14.90;99.90;;;;;;4954448;28;20047;-78
2022/09/25 09:57:09;;;;;;;3.67;0.90;;;14.90;99.90;;;;;;4949878;28;20039;-78
2022/09/25 09:59:51;;;;;;;9.27;1.23;;;14.90;99.90;;;;;;4946297;28;20122;-79
2022/09/25 10:02:32;;;;;;;3.42;1.08;;;15.00;99.90;;;;;;4945583;28;20507;-78
2022/09/25 10:05:02;;;;;;;4.25;0.68;;;15.00;99.90;;;;;;4942797;28;20554;-78
2022/09/25 10:07:28;;;;;;;3.35;0.70;;;15.20;99.90;;;;;;4935764;28;20032;-79
2022/09/25 10:09:55;;;;;;;5.80;0.85;;;15.30;99.90;;;;;;4964617;28;20122;-78
2022/09/25 10:12:32;;;;;;;3.10;1.10;;;15.40;99.90;;;;;;4950337;28;20468;-78
2022/09/25 10:14:58;;;;;;;6.85;0.82;;;15.40;99.90;;;;;;4949507;28;20093;-78
2022/09/25 10:17:24;;;;;;;3.55;0.98;;;15.50;99.90;;;;;;4947908;28;20023;-79
2022/09/25 10:19:54;;;;;;;4.03;0.90;;;15.40;99.90;;;;;;4950429;28;20023;-79
2022/09/25 10:22:24;;;;;;;2.78;0.73;;;15.50;99.90;;;;;;4963591;28;20035;-78
2022/09/25 10:24:57;;;;;;;4.15;0.80;;;15.70;99.90;;;;;;4961305;28;20494;-79
2022/09/25 10:27:35;;;;;;;3.35;0.80;;;15.80;99.90;;;;;;4937016;28;20031;-78
2022/09/25 10:30:09;;;;;;;1.77;0.70;;;16.00;99.90;;;;;;4949615;28;20518;-80
2022/09/25 10:33:00;;;;;;;2.45;0.70;;;16.00;99.90;;;;;;4964332;28;20026;-79
2022/09/25 10:35:27;;;;;;;8.13;0.98;;;16.20;99.90;;;;;;4963389;28;20039;-79
2022/09/25 10:37:55;;;;;;;3.55;0.80;;;16.20;99.90;;;;;;4963263;28;20050;-79
2022/09/25 10:40:34;;;;;;;4.95;0.80;;;16.40;99.90;;;;;;4957933;28;20877;-79
2022/09/25 10:43:05;;;;;;;6.63;1.15;;;16.60;99.90;;;;;;4950908;28;20338;-79
2022/09/25 10:45:32;;;;;;;2.25;0.80;;;16.50;99.90;;;;;;4978439;28;20050;-79
2022/09/25 10:50:42;;;;;;;5.72;1.02;;;16.50;99.90;;;;;;4947488;28;20114;-78
2022/09/25 10:53:27;;;;;;;6.05;1.10;;;16.50;99.90;;;;;;4946037;28;20201;-79
2022/09/25 10:55:54;;;;;;;2.97;1.00;;;16.60;99.90;;;;;;4932935;28;20071;-80
2022/09/25 10:58:55;;;;;;;7.82;1.02;;;16.70;99.90;;;;;;4941262;28;20126;-79
2022/09/25 11:01:29;;;;;;;4.13;1.20;;;16.80;99.90;;;;;;4955656;28;20035;-79
2022/09/25 11:03:55;;;;;;;3.83;1.15;;;16.80;99.90;;;;;;4946364;28;20039;-80
2022/09/25 11:06:26;;;;;;;3.45;0.90;;;16.80;99.90;;;;;;4929549;28;20122;-79
2022/09/25 11:09:07;;;;;;;4.30;0.80;;;16.80;99.90;;;;;;4946514;28;20035;-80
2022/09/25 11:11:33;;;;;;;5.82;0.95;;;17.10;99.90;;;;;;4961511;28;20622;-80
2022/09/25 11:14:02;;;;;;;4.35;1.10;;;17.10;99.90;;;;;;4931201;28;20047;-79
2022/09/25 11:16:44;;;;;;;2.10;0.75;;;17.10;99.90;;;;;;4961882;28;20043;-80
2022/09/25 11:19:15;;;;;;;2.70;0.98;;;17.00;99.90;;;;;;4964995;28;20499;-80
2022/09/25 11:21:44;;;;;;;7.07;2.22;;;17.10;99.90;;;;;;4947764;28;20114;-80
2022/09/25 11:24:16;;;;;;;6.43;1.05;;;17.20;99.90;;;;;;4964833;28;20042;-80
2022/09/25 11:27:09;;;;;;;2.72;0.60;;;17.30;99.90;;;;;;4960767;28;20046;-80
2022/09/25 11:29:41;;;;;;;2.25;0.68;;;17.50;99.90;;;;;;4963750;28;20039;-80
2022/09/25 11:32:44;;;;;;;1.38;0.55;;;17.40;99.90;;;;;;4955361;28;20055;-79
2022/09/25 11:35:41;;;;;;;4.55;0.80;;;17.30;99.90;;;;;;4970850;28;20035;-80
2022/09/25 11:41:25;;;;;;;3.13;0.90;;;17.40;99.90;;;;;;4964038;28;20704;-80
2022/09/25 11:44:12;;;;;;;1.33;0.60;;;17.30;98.80;;;;;;4274302;28;10000302;-80
2022/09/25 11:46:55;;;;;;;5.20;1.08;;;17.20;99.80;;;;;;4960683;28;20042;-80
2022/09/25 11:49:35;;;;;;;4.03;0.80;;;17.30;99.90;;;;;;4922451;28;20043;-80
2022/09/25 11:52:17;;;;;;;2.28;0.63;;;17.50;99.90;;;;;;4943107;28;20042;-81
2022/09/25 11:55:06;;;;;;;3.83;0.63;;;17.50;99.50;;;;;;4926628;28;20190;-81
2022/09/25 11:57:44;;;;;;;1.45;0.50;;;17.60;99.90;;;;;;4957601;28;20517;-80
2022/09/25 12:00:20;;;;;;;5.07;0.77;;;17.60;97.90;;;;;;4963065;28;20431;-79
2022/09/25 12:02:49;;;;;;;5.25;1.08;;;18.00;98.70;;;;;;4955676;28;20451;-79
2022/09/25 12:05:46;;;;;;;2.47;0.50;;;17.90;98.30;;;;;;4964425;28;20345;-79
2022/09/25 12:08:28;;;;;;;4.63;0.73;;;18.40;98.00;;;;;;4972198;28;20043;-80
2022/09/25 12:10:57;;;;;;;5.15;0.93;;;18.50;98.70;;;;;;4961997;28;20041;-79
2022/09/25 12:13:39;;;;;;;3.88;0.68;;;18.50;98.20;;;;;;4943316;28;20094;-79
2022/09/25 12:16:50;;;;;;;1.92;0.70;;;18.50;99.10;;;;;;4927267;28;20050;-80
2022/09/25 12:19:43;;;;;;;2.63;0.55;;;19.00;97.10;;;;;;4962093;28;20043;-84
2022/09/25 12:22:44;;;;;;;3.80;0.70;;;19.00;98.80;;;;;;4944101;28;20531;-83
2022/09/25 12:25:32;;;;;;;5.05;0.63;;;18.30;96.70;;;;;;4912723;28;20047;-83
2022/09/25 12:28:16;;;;;;;3.45;0.60;;;19.00;96.80;;;;;;4926174;28;20043;-84
2022/09/25 12:31:05;;;;;;;3.55;0.73;;;18.80;96.40;;;;;;4946184;28;20507;-83
2022/09/25 12:33:54;;;;;;;3.45;0.60;;;18.90;96.80;;;;;;4953534;28;20481;-83
2022/09/25 12:36:44;;;;;;;3.67;0.90;;;19.60;97.60;;;;;;4971219;28;20055;-84
2022/09/25 12:39:30;;;;;;;3.70;0.60;;;19.30;96.80;;;;;;4919893;28;20130;-83
2022/09/25 12:42:09;;;;;;;1.55;0.47;;;19.10;97.00;;;;;;4953577;28;20039;-83
2022/09/25 12:45:00;;;;;;;5.75;0.90;;;19.40;97.80;;;;;;4929164;28;20114;-83
2022/09/25 12:47:40;;;;;;;5.47;0.95;;;19.20;94.40;;;;;;4946746;28;20030;-83
2022/09/25 12:50:09;;;;;;;3.13;1.02;;;19.00;94.00;;;;;;4958973;28;20093;-83
2022/09/25 12:53:11;;;;;;;1.17;0.50;;;19.00;93.70;;;;;;4926890;28;20030;-83
2022/09/25 12:55:45;;;;;;;5.90;0.80;;;19.70;95.00;;;;;;4961290;28;20130;-83
2022/09/25 12:58:36;;;;;;;1.08;0.40;;;19.90;95.50;;;;;;4944423;28;20039;-84
2022/09/25 13:01:30;;;;;;;2.65;0.68;;;19.70;96.50;;;;;;4929200;28;20039;-83
2022/09/25 13:04:36;;;;;;;3.95;0.60;;;19.60;96.70;;;;;;4963027;28;20435;-84
2022/09/25 13:07:26;;;;;;;3.75;0.60;;;19.70;96.00;;;;;;4944563;28;20093;-83
2022/09/25 13:09:52;;;;;;;4.18;0.60;;;19.70;94.40;;;;;;4923868;28;20114;-84
2022/09/25 13:12:23;;;;;;;5.93;0.88;;;19.40;94.50;;;;;;4943490;28;20499;-83
2022/09/25 13:15:06;;;;;;;3.88;0.50;;;19.50;93.40;;;;;;4938900;28;20483;-84
2022/09/25 13:17:32;;;;;;;3.33;0.70;;;19.40;92.80;;;;;;4959764;28;20027;-83
2022/09/25 13:20:27;;;;;;;2.47;0.70;;;19.30;92.70;;;;;;4924952;28;20031;-80
2022/09/25 13:23:12;;;;;;;2.10;0.75;;;19.20;91.60;;;;;;4948707;28;20032;-84
2022/09/25 13:25:43;;;;;;;4.40;0.55;;;19.10;89.40;;;;;;4932072;28;20038;-83
2022/09/25 13:28:17;;;;;;;1.33;0.60;;;19.20;93.10;;;;;;4949601;28;20039;-83
2022/09/25 13:30:56;;;;;;;3.28;0.60;;;19.10;92.00;;;;;;4930573;28;20390;-83